Time;durP1;ratioP1;P1;durP2;ratioP2;P2;SDS_P1;SDS_P2;PMS_P1;PMS_P2;Temp;Humidity;BMP_temperature;BMP_pressure;BME280_temperature;BME280_humidity;BME280_pressure;Samples;Min_cycle;Max_cycle;Signal;HPM_P1;HPM_P2
2023/03/04 00:01:08;;;;;;;11.18;2.13;;;;;;;5.13;77.57;102591.97;5047127;28;20037;-95
2023/03/04 00:03:36;;;;;;;10.70;2.67;;;;;;;5.13;78.03;102597.13;5030703;28;20558;-94
2023/03/04 00:06:01;;;;;;;7.63;2.60;;;;;;;5.15;78.07;102598.13;5030641;28;20029;-94
2023/03/04 00:08:29;;;;;;;9.63;2.58;;;;;;;5.15;77.98;102600.69;5030818;28;20094;-95
2023/03/04 00:10:55;;;;;;;10.85;2.55;;;;;;;5.16;78.46;102605.09;5048187;28;20047;-93
2023/03/04 00:13:21;;;;;;;9.90;2.40;;;;;;;5.14;78.23;102604.06;5012846;28;20049;-95
2023/03/04 00:15:47;;;;;;;11.25;2.45;;;;;;;5.12;78.46;102606.53;5030667;28;20075;-94
2023/03/04 00:18:13;;;;;;;12.25;2.63;;;;;;;5.11;78.19;102606.44;5028628;28;20809;-93
2023/03/04 00:20:38;;;;;;;10.73;2.40;;;;;;;5.11;78.05;102603.84;5031356;28;20032;-94
2023/03/04 00:23:04;;;;;;;8.70;2.13;;;;;;;5.10;77.63;102596.88;5030452;28;20570;-94
2023/03/04 00:25:29;;;;;;;11.25;2.28;;;;;;;5.09;78.49;102595.09;5027522;28;20563;-95
2023/03/04 00:27:55;;;;;;;12.18;2.50;;;;;;;5.08;78.73;102590.69;5031329;28;20519;-95
2023/03/04 00:30:23;;;;;;;6.78;2.30;;;;;;;5.05;79.08;102589.69;5030884;28;20017;-94
2023/03/04 00:32:48;;;;;;;7.50;2.50;;;;;;;5.02;78.97;102589.44;5029159;28;20096;-94
2023/03/04 00:35:14;;;;;;;10.25;2.47;;;;;;;5.01;78.93;102592.84;5030048;28;20041;-94
2023/03/04 00:37:39;;;;;;;9.23;2.50;;;;;;;4.97;79.06;102593.38;5028483;28;20172;-95
2023/03/04 00:40:21;;;;;;;12.93;2.70;;;;;;;4.96;79.27;102589.00;5016648;23;20042;-93
2023/03/04 00:42:50;;;;;;;9.20;2.90;;;;;;;4.96;79.34;102594.16;5003476;28;20029;-94
2023/03/04 00:45:15;;;;;;;6.13;2.30;;;;;;;4.95;79.47;102584.59;5009716;28;20033;-93
2023/03/04 00:48:01;;;;;;;11.25;2.85;;;;;;;4.90;79.39;102583.38;5011371;28;20117;-94
2023/03/04 00:50:26;;;;;;;9.85;2.25;;;;;;;4.91;79.66;102587.78;5010403;28;20045;-93
2023/03/04 00:52:51;;;;;;;8.48;2.42;;;;;;;4.89;79.38;102586.75;5013632;28;20480;-94
2023/03/04 00:55:17;;;;;;;10.88;2.55;;;;;;;4.90;79.57;102583.38;5010847;28;20026;-94
2023/03/04 00:57:42;;;;;;;9.88;2.90;;;;;;;4.89;79.58;102591.91;5004998;28;20026;-93
2023/03/04 01:00:12;;;;;;;12.13;2.47;;;;;;;4.90;79.32;102591.13;5025845;28;20493;-93
2023/03/04 01:02:37;;;;;;;;;;;;;;;4.98;78.80;102591.69;5031516;28;20596;-95
2023/03/04 01:05:03;;;;;;;8.00;2.15;;;;;;;4.93;79.84;102593.06;5013422;28;19921;-94
2023/03/04 01:07:34;;;;;;;7.05;2.30;;;;;;;4.92;79.83;102592.13;5012924;28;20025;-94
2023/03/04 01:09:59;;;;;;;8.50;2.42;;;;;;;4.91;79.92;102587.78;5012983;28;20028;-93
2023/03/04 01:12:25;;;;;;;9.77;2.13;;;;;;;4.92;80.16;102593.81;5013379;28;20379;-94
2023/03/04 01:15:00;;;;;;;11.50;3.13;;;;;;;4.92;80.41;102591.25;5011819;28;20402;-94
2023/03/04 01:17:26;;;;;;;10.13;2.20;;;;;;;4.92;80.69;102591.25;5012274;28;20025;-94
2023/03/04 01:19:51;;;;;;;11.48;2.92;;;;;;;4.88;80.05;102588.44;5012984;28;20458;-94
2023/03/04 01:22:23;;;;;;;10.15;2.85;;;;;;;4.85;80.22;102598.53;5029825;28;20025;-95
2023/03/04 01:24:51;;;;;;;10.90;2.22;;;;;;;4.82;80.61;102590.56;5029976;28;20029;-95
2023/03/04 01:27:22;;;;;;;9.50;2.08;;;;;;;4.86;80.82;102594.25;5032988;28;20025;-95
2023/03/04 01:29:47;;;;;;;8.55;2.20;;;;;;;4.86;81.31;102589.97;5023787;28;20123;-95
2023/03/04 01:32:12;;;;;;;9.50;2.30;;;;;;;4.83;80.58;102591.47;5029699;28;20599;-95
2023/03/04 01:34:40;;;;;;;7.72;2.30;;;;;;;4.78;80.61;102587.63;5029011;28;20044;-95
2023/03/04 01:37:17;;;;;;;9.50;2.75;;;;;;;4.76;80.71;102586.63;5030080;28;20021;-95
2023/03/04 01:39:42;;;;;;;11.25;2.10;;;;;;;4.74;80.69;102586.50;5027551;28;20129;-95
2023/03/04 01:42:19;;;;;;;8.60;2.25;;;;;;;4.72;80.70;102588.03;5030913;28;20026;-95
2023/03/04 01:44:48;;;;;;;9.32;2.30;;;;;;;4.73;80.47;102576.06;5031190;28;20037;-95
2023/03/04 01:47:14;;;;;;;6.90;1.45;;;;;;;4.73;81.11;102573.47;5029123;28;20021;-95
2023/03/04 01:49:39;;;;;;;10.23;2.20;;;;;;;4.71;80.54;102568.19;5026889;28;20549;-95
2023/03/04 01:52:14;;;;;;;7.78;1.80;;;;;;;4.70;80.58;102571.56;5030990;28;20029;-95
2023/03/04 01:54:40;;;;;;;6.32;1.67;;;;;;;4.69;80.58;102562.91;5031015;28;20021;-95
2023/03/04 01:57:25;;;;;;;6.78;1.88;;;;;;;4.66;80.76;102557.53;5034664;28;20152;-95
2023/03/04 02:00:11;;;;;;;7.68;1.63;;;;;;;4.69;80.58;102568.09;5050334;28;20037;-95
2023/03/04 02:02:39;;;;;;;8.60;2.00;;;;;;;4.66;81.04;102551.44;5033212;28;20029;-95
2023/03/04 02:05:13;;;;;;;11.10;2.10;;;;;;;4.68;80.93;102553.38;5027498;28;20112;-95
2023/03/04 02:07:42;;;;;;;9.93;2.00;;;;;;;4.69;80.90;102555.16;5033539;28;20021;-95
2023/03/04 02:10:11;;;;;;;7.28;1.80;;;;;;;4.66;81.21;102548.88;5035644;28;20029;-96
2023/03/04 02:12:41;;;;;;;9.32;2.17;;;;;;;4.63;81.44;102552.09;5034187;28;20033;-95
2023/03/04 02:15:07;;;;;;;6.43;1.65;;;;;;;4.61;81.29;102548.53;5032880;28;20037;-95
2023/03/04 02:17:43;;;;;;;9.63;2.13;;;;;;;4.62;81.42;102549.41;5033489;28;20045;-95
2023/03/04 02:20:20;;;;;;;7.45;1.75;;;;;;;4.64;82.03;102547.88;5032666;28;20116;-95
2023/03/04 02:22:59;;;;;;;8.82;2.35;;;;;;;4.64;81.76;102538.41;5033002;28;20040;-95
2023/03/04 02:25:36;;;;;;;10.02;1.95;;;;;;;4.68;81.60;102542.16;5032422;28;20097;-95
2023/03/04 02:28:01;;;;;;;7.63;2.20;;;;;;;4.68;81.28;102537.88;5033858;28;20017;-95
2023/03/04 02:30:27;;;;;;;9.00;2.47;;;;;;;4.68;81.45;102529.25;5034441;28;20508;-95
2023/03/04 02:32:56;;;;;;;9.15;2.00;;;;;;;4.70;81.25;102535.41;5033563;28;20033;-94
2023/03/04 02:35:24;;;;;;;7.47;1.80;;;;;;;4.72;81.72;102540.69;5034308;28;20026;-95
2023/03/04 02:37:49;;;;;;;7.47;1.75;;;;;;;4.73;81.74;102533.03;5031749;28;20287;-94
2023/03/04 02:40:30;;;;;;;7.40;1.67;;;;;;;4.74;81.20;102529.69;5031417;28;20379;-94
2023/03/04 02:42:59;;;;;;;9.50;1.98;;;;;;;4.76;81.26;102532.38;5032421;28;20120;-94
2023/03/04 02:45:59;;;;;;;8.20;1.58;;;;;;;4.78;81.85;102531.72;5030338;28;20098;-94
2023/03/04 02:48:25;;;;;;;11.18;2.08;;;;;;;4.70;81.64;102523.38;5026444;28;20128;-95
2023/03/04 02:50:52;;;;;;;11.23;1.73;;;;;;;4.69;82.02;102521.59;5031660;28;20029;-92
2023/03/04 02:53:19;;;;;;;8.23;1.95;;;;;;;4.61;81.68;102517.53;5030335;28;20033;-94
2023/03/04 02:55:51;;;;;;;5.20;1.52;;;;;;;4.61;81.79;102519.25;5030219;28;20120;-93
2023/03/04 02:58:16;;;;;;;8.23;1.92;;;;;;;4.61;81.71;102517.53;5027948;28;20582;-94
2023/03/04 03:00:42;;;;;;;9.65;2.22;;;;;;;4.62;82.12;102521.00;5031260;28;20031;-94
2023/03/04 03:03:10;;;;;;;8.52;1.77;;;;;;;4.58;82.03;102514.72;5032165;28;20049;-94
2023/03/04 03:05:37;;;;;;;7.32;1.88;;;;;;;4.53;81.97;102511.81;5033279;28;20043;-94
2023/03/04 03:08:03;;;;;;;9.45;1.70;;;;;;;4.53;82.27;102505.72;5034175;28;20113;-95
2023/03/04 03:10:43;;;;;;;9.15;1.80;;;;;;;4.53;82.38;102513.47;5033013;28;20049;-96
2023/03/04 03:13:08;;;;;;;11.05;2.17;;;;;;;4.52;82.09;102514.28;5037049;28;20041;-95
2023/03/04 03:15:41;;;;;;;6.57;1.80;;;;;;;4.50;82.26;102509.00;5033929;28;20029;-95
2023/03/04 03:18:09;;;;;;;6.55;1.65;;;;;;;4.50;82.72;102508.09;5035756;28;20056;-95
2023/03/04 03:20:45;;;;;;;10.77;1.80;;;;;;;4.52;82.80;102511.69;5031346;28;20033;-95
2023/03/04 03:23:14;;;;;;;7.50;1.88;;;;;;;4.50;83.06;102514.16;5033233;28;20071;-95
2023/03/04 03:25:47;;;;;;;6.23;1.40;;;;;;;4.52;82.81;102509.13;5032409;28;20083;-95
2023/03/04 03:28:17;;;;;;;8.48;1.63;;;;;;;4.53;82.79;102511.81;5047732;28;20052;-94
2023/03/04 03:30:42;;;;;;;7.45;1.63;;;;;;;4.57;82.81;102504.28;5033653;28;20041;-95
2023/03/04 03:33:11;;;;;;;6.50;1.58;;;;;;;4.59;82.65;102506.22;5030078;28;20056;-95
2023/03/04 03:35:39;;;;;;;6.77;1.77;;;;;;;4.64;82.71;102507.44;5030855;28;20021;-94
2023/03/04 03:38:04;;;;;;;9.13;1.85;;;;;;;4.63;82.69;102505.63;5031400;28;20091;-95
2023/03/04 03:40:30;;;;;;;7.32;1.60;;;;;;;4.61;82.68;102502.06;5031807;28;20537;-95
2023/03/04 03:43:03;;;;;;;10.50;1.88;;;;;;;4.62;82.87;102509.03;5050647;28;20454;-95
2023/03/04 03:45:32;;;;;;;7.47;1.92;;;;;;;4.59;82.70;102498.47;5031224;28;20036;-95
2023/03/04 03:47:57;;;;;;;6.90;1.70;;;;;;;4.57;81.45;102492.28;5048661;28;20079;-95
2023/03/04 03:50:22;;;;;;;7.43;1.90;;;;;;;4.54;80.86;102499.78;5030475;28;20100;-95
2023/03/04 03:52:51;;;;;;;6.55;2.00;;;;;;;4.52;81.57;102501.38;5030642;28;20072;-95
2023/03/04 03:55:16;;;;;;;7.13;1.80;;;;;;;4.54;82.00;102499.78;5032834;28;20115;-95
2023/03/04 03:57:42;;;;;;;8.05;1.83;;;;;;;4.52;81.84;102498.78;5032666;28;20057;-95
2023/03/04 04:00:18;;;;;;;8.90;2.22;;;;;;;4.51;82.16;102495.28;5031499;28;20025;-95
2023/03/04 04:02:46;;;;;;;9.32;2.22;;;;;;;4.50;82.68;102497.75;5030893;28;20074;-94
2023/03/04 04:05:12;;;;;;;5.47;2.13;;;;;;;4.55;82.50;102505.84;5029496;28;20025;-95
2023/03/04 04:07:40;;;;;;;10.43;1.80;;;;;;;4.56;82.41;102505.06;5030668;28;20025;-95
2023/03/04 04:10:16;;;;;;;7.32;1.75;;;;;;;4.56;82.31;102493.06;5030715;28;20032;-95
2023/03/04 04:12:42;;;;;;;8.93;1.70;;;;;;;4.59;82.82;102503.63;5031559;28;20108;-95
2023/03/04 04:15:13;;;;;;;8.25;1.80;;;;;;;4.62;83.41;102503.84;5030253;28;20109;-94
2023/03/04 04:17:43;;;;;;;8.35;2.00;;;;;;;4.61;82.96;102503.75;5030243;28;20032;-95
2023/03/04 04:20:12;;;;;;;6.35;1.95;;;;;;;4.56;82.93;102503.38;5030687;28;20487;-95
2023/03/04 04:22:40;;;;;;;6.07;1.63;;;;;;;4.54;83.26;102504.97;5033037;28;20029;-95
2023/03/04 04:25:12;;;;;;;8.25;1.80;;;;;;;4.53;82.29;102511.81;5031747;28;20026;-95
2023/03/04 04:27:40;;;;;;;6.85;1.65;;;;;;;4.49;81.59;102496.88;5030501;28;20064;-95
2023/03/04 04:30:09;;;;;;;8.93;1.70;;;;;;;4.47;82.17;102494.97;5031274;28;20060;-95
2023/03/04 04:32:37;;;;;;;8.63;1.85;;;;;;;4.47;82.24;102497.53;5031068;28;20078;-95
2023/03/04 04:35:02;;;;;;;6.60;1.88;;;;;;;4.49;82.46;102499.47;5030362;28;20041;-95
2023/03/04 04:37:32;;;;;;;7.28;1.90;;;;;;;4.49;82.15;102494.28;5030640;28;20030;-95
2023/03/04 04:39:59;;;;;;;8.75;1.70;;;;;;;4.52;82.31;102499.69;5029835;28;20068;-94
2023/03/04 04:42:28;;;;;;;8.35;1.52;;;;;;;4.53;82.44;102500.56;5029266;28;20030;-96
2023/03/04 04:45:02;;;;;;;6.57;1.70;;;;;;;4.55;81.65;102505.84;5029969;28;20021;-95
2023/03/04 04:47:28;;;;;;;8.88;1.83;;;;;;;4.55;82.35;102501.59;5030906;28;20502;-95
2023/03/04 04:49:54;;;;;;;5.63;1.80;;;;;;;4.55;82.83;102509.34;5030331;28;20033;-95
2023/03/04 04:52:23;;;;;;;7.82;2.33;;;;;;;4.55;81.99;102514.50;5031765;28;20040;-96
2023/03/04 04:54:48;;;;;;;8.13;1.75;;;;;;;4.55;82.56;102511.94;5032747;28;20064;-94
2023/03/04 04:57:13;;;;;;;6.82;1.70;;;;;;;4.56;82.13;102507.66;5031037;28;20045;-94
2023/03/04 04:59:41;;;;;;;5.95;1.50;;;;;;;4.58;81.95;102508.69;5030815;28;20036;-96
2023/03/04 05:02:07;;;;;;;5.57;1.67;;;;;;;4.58;81.95;102500.94;5030682;28;20104;-95
2023/03/04 05:04:32;;;;;;;10.65;1.70;;;;;;;4.59;81.99;102506.22;5029983;28;21161;-95
2023/03/04 05:06:58;;;;;;;10.07;1.85;;;;;;;4.60;81.62;102505.41;5030664;28;20027;-94
2023/03/04 05:09:23;;;;;;;7.63;1.73;;;;;;;4.60;81.64;102505.41;5045829;28;20025;-96
2023/03/04 05:11:51;;;;;;;6.80;1.95;;;;;;;4.62;81.58;102513.25;5030704;28;20021;-96
2023/03/04 05:14:16;;;;;;;7.68;1.88;;;;;;;4.61;82.04;102508.91;5030643;28;20026;-95
2023/03/04 05:16:42;;;;;;;5.90;1.40;;;;;;;4.63;81.95;102505.63;5031790;28;20037;-94
2023/03/04 05:19:13;;;;;;;4.70;1.65;;;;;;;4.68;82.17;102504.31;5030840;28;20481;-94
2023/03/04 05:21:38;;;;;;;7.72;1.90;;;;;;;4.70;81.93;102513.06;5029998;28;20037;-95
2023/03/04 05:24:06;;;;;;;4.35;1.27;;;;;;;4.70;81.52;102507.00;5028151;28;20025;-94
2023/03/04 05:26:32;;;;;;;9.25;1.73;;;;;;;4.69;82.14;102502.63;5028992;28;20037;-94
2023/03/04 05:28:57;;;;;;;6.50;1.88;;;;;;;4.68;81.92;102504.31;5029054;28;20028;-95
2023/03/04 05:31:23;;;;;;;10.02;2.00;;;;;;;4.66;81.61;102505.88;5034529;28;20024;-94
2023/03/04 05:33:48;;;;;;;5.88;1.70;;;;;;;4.66;82.06;102513.63;5045765;28;20556;-94
2023/03/04 05:36:23;;;;;;;9.35;2.25;;;;;;;4.67;82.48;102515.41;5031901;28;20029;-93
2023/03/04 05:38:49;;;;;;;7.22;1.60;;;;;;;4.66;82.11;102507.56;5034594;28;20037;-93
2023/03/04 05:41:17;;;;;;;7.35;1.60;;;;;;;4.67;82.13;102512.81;5033874;28;20107;-93
2023/03/04 05:43:43;;;;;;;5.57;1.60;;;;;;;4.66;81.91;102513.63;5030508;28;20026;-93
2023/03/04 05:46:15;;;;;;;8.88;2.05;;;;;;;4.64;82.26;102515.19;5032848;28;20040;-93
2023/03/04 05:48:44;;;;;;;6.97;1.52;;;;;;;4.63;81.97;102517.66;5032884;28;20036;-94
2023/03/04 05:51:09;;;;;;;8.80;2.13;;;;;;;4.60;82.05;102517.44;5032891;28;20021;-94
2023/03/04 05:53:44;;;;;;;6.78;1.77;;;;;;;4.59;82.43;102518.19;5032899;28;20753;-94
2023/03/04 05:56:15;;;;;;;9.65;2.08;;;;;;;4.56;82.70;102523.13;5033051;28;20075;-95
2023/03/04 05:58:40;;;;;;;5.28;1.30;;;;;;;4.52;82.66;102516.88;5035343;28;20102;-95
2023/03/04 06:01:06;;;;;;;5.82;1.60;;;;;;;4.49;82.71;102522.69;5036254;28;20060;-95
2023/03/04 06:03:32;;;;;;;5.75;1.80;;;;;;;4.46;82.14;102518.97;5032037;28;20391;-95
2023/03/04 06:06:00;;;;;;;5.40;1.30;;;;;;;4.45;82.70;102522.34;5033272;28;20550;-95
2023/03/04 06:08:29;;;;;;;5.32;1.50;;;;;;;4.46;83.32;102531.88;5032727;28;20037;-95
2023/03/04 06:10:57;;;;;;;5.63;1.60;;;;;;;4.44;82.94;102531.75;5036008;28;20479;-96
2023/03/04 06:13:26;;;;;;;9.88;1.73;;;;;;;4.41;83.43;102523.78;5034194;28;20036;-95
2023/03/04 06:15:54;;;;;;;8.18;1.73;;;;;;;4.39;83.94;102529.59;5033194;28;20033;-95
2023/03/04 06:18:25;;;;;;;4.55;1.70;;;;;;;4.39;84.47;102525.38;5033882;28;20021;-95
2023/03/04 06:20:54;;;;;;;4.47;1.40;;;;;;;4.38;84.22;102531.28;5043845;28;20026;-95
2023/03/04 06:23:22;;;;;;;7.00;1.75;;;;;;;4.39;84.54;102529.59;5034350;28;20029;-95
2023/03/04 06:25:57;;;;;;;5.90;1.60;;;;;;;4.39;84.48;102539.94;5034021;28;20025;-95
2023/03/04 06:28:25;;;;;;;5.50;1.52;;;;;;;4.38;85.16;102528.72;5033900;28;20029;-95
2023/03/04 06:30:54;;;;;;;5.18;1.73;;;;;;;4.40;85.17;102536.56;5032440;28;20037;-95
2023/03/04 06:33:22;;;;;;;6.15;1.60;;;;;;;4.41;84.98;102530.63;5032588;28;20119;-95
2023/03/04 06:35:53;;;;;;;5.70;1.48;;;;;;;4.43;84.75;102536.81;5031557;28;20029;-95
2023/03/04 06:38:18;;;;;;;6.43;1.70;;;;;;;4.40;85.23;102537.47;5033003;28;20187;-95
2023/03/04 06:40:44;;;;;;;6.28;1.52;;;;;;;4.39;85.52;102534.75;5033426;28;20493;-95
2023/03/04 06:43:13;;;;;;;6.13;1.50;;;;;;;4.40;85.71;102544.31;5030855;28;20032;-95
2023/03/04 06:45:41;;;;;;;5.18;1.10;;;;;;;4.39;85.55;102540.84;5033660;28;20521;-95
2023/03/04 06:48:07;;;;;;;4.40;1.48;;;;;;;4.40;85.74;102550.38;5033008;28;20025;-94
2023/03/04 06:50:32;;;;;;;6.07;1.55;;;;;;;4.39;86.08;102550.25;5032881;28;20028;-95
2023/03/04 06:52:58;;;;;;;5.15;1.42;;;;;;;4.39;86.58;102547.66;5032899;28;20033;-95
2023/03/04 06:55:23;;;;;;;5.75;1.23;;;;;;;4.35;86.83;102544.84;5033044;28;20021;-95
2023/03/04 06:57:52;;;;;;;5.32;1.77;;;;;;;4.32;87.20;102546.31;5032852;28;20029;-95
2023/03/04 07:00:23;;;;;;;6.38;1.40;;;;;;;4.29;88.26;102557.31;5033583;28;20097;-94
2023/03/04 07:02:48;;;;;;;5.03;1.60;;;;;;;4.29;88.66;102551.25;5032961;28;20021;-93
2023/03/04 07:05:17;;;;;;;5.15;1.50;;;;;;;4.29;88.55;102549.56;5033179;28;20026;-94
2023/03/04 07:07:48;;;;;;;6.28;1.60;;;;;;;4.32;88.68;102554.06;5024171;28;20044;-94
2023/03/04 07:10:16;;;;;;;5.75;1.40;;;;;;;4.33;88.50;102551.59;5029394;28;20033;-93
2023/03/04 07:12:42;;;;;;;6.30;1.60;;;;;;;4.33;88.60;102559.34;5029912;28;20099;-94
2023/03/04 07:15:11;;;;;;;5.32;1.40;;;;;;;4.35;88.91;102557.75;5032475;28;20069;-93
2023/03/04 07:17:39;;;;;;;4.63;1.40;;;;;;;4.43;88.53;102557.44;5031238;28;20052;-94
2023/03/04 07:20:05;;;;;;;6.07;1.48;;;;;;;4.47;88.73;102560.38;5031439;28;20033;-93
2023/03/04 07:22:30;;;;;;;5.70;1.50;;;;;;;4.54;88.27;102551.41;5030977;28;20040;-93
2023/03/04 07:24:58;;;;;;;4.43;1.33;;;;;;;4.58;88.52;102556.03;5032933;28;20022;-92
2023/03/04 07:27:24;;;;;;;5.97;1.90;;;;;;;4.62;87.91;102552.91;5032654;28;20025;-94
2023/03/04 07:29:49;;;;;;;6.18;1.70;;;;;;;4.64;88.01;102560.78;5032656;28;20032;-95
2023/03/04 07:32:17;;;;;;;5.28;1.50;;;;;;;4.63;88.56;102565.00;5031577;28;20021;-94
2023/03/04 07:34:48;;;;;;;5.55;1.70;;;;;;;4.64;88.52;102572.00;5030636;28;20107;-94
2023/03/04 07:37:16;;;;;;;3.88;1.35;;;;;;;4.67;88.76;102569.63;5030692;28;20029;-94
2023/03/04 07:39:42;;;;;;;7.10;1.60;;;;;;;4.72;89.00;102571.66;5025602;28;20049;-94
2023/03/04 07:42:09;;;;;;;5.03;1.67;;;;;;;4.76;88.72;102573.69;5027474;28;20095;-94
2023/03/04 07:44:55;;;;;;;6.05;1.90;;;;;;;4.75;88.12;102577.97;5031310;28;20014;-94
2023/03/04 07:47:20;;;;;;;6.35;1.60;;;;;;;4.72;88.52;102575.13;5031930;28;20104;-94
2023/03/04 07:49:46;;;;;;;5.82;1.95;;;;;;;4.71;89.17;102581.09;5044144;28;20164;-94
2023/03/04 07:52:14;;;;;;;4.97;1.60;;;;;;;4.68;89.30;102581.75;5030708;28;20071;-93
2023/03/04 07:54:39;;;;;;;6.82;1.80;;;;;;;4.67;89.31;102585.13;5029236;28;20009;-94
2023/03/04 07:57:05;;;;;;;4.75;1.63;;;;;;;4.65;89.45;102586.69;5030505;28;20112;-93
2023/03/04 07:59:33;;;;;;;7.82;1.85;;;;;;;4.68;89.76;102581.75;5030507;28;20031;-94
2023/03/04 08:01:58;;;;;;;7.63;1.98;;;;;;;4.70;89.03;102584.47;5040450;28;20025;-94
2023/03/04 08:04:24;;;;;;;5.40;1.83;;;;;;;4.68;90.09;102586.94;5028838;28;20045;-93
2023/03/04 08:06:54;;;;;;;8.88;2.20;;;;;;;4.71;90.00;102586.28;5028893;28;20079;-93
2023/03/04 08:09:25;;;;;;;6.65;2.20;;;;;;;4.73;90.33;102589.84;5029699;28;20033;-94
2023/03/04 08:11:50;;;;;;;7.88;2.17;;;;;;;4.77;90.50;102580.66;5031888;28;20055;-96
2023/03/04 08:14:25;;;;;;;6.97;2.10;;;;;;;4.79;90.96;102586.84;5032962;28;20441;-95
2023/03/04 08:16:51;;;;;;;9.25;2.58;;;;;;;4.80;90.59;102581.78;5034562;28;20459;-96
2023/03/04 08:19:16;;;;;;;5.18;2.17;;;;;;;4.79;90.13;102579.09;5033453;28;20021;-94
2023/03/04 08:21:41;;;;;;;6.70;2.10;;;;;;;4.81;90.81;102582.72;5030877;28;20475;-94
2023/03/04 08:24:10;;;;;;;4.85;2.03;;;;;;;4.83;90.73;102591.47;5035572;28;20052;-96
2023/03/04 08:26:44;;;;;;;8.57;2.40;;;;;;;4.87;90.53;102585.75;5032529;28;20041;-95
2023/03/04 08:29:38;;;;;;;5.32;2.05;;;;;;;4.98;89.58;102591.69;5028907;28;20029;-94
2023/03/04 08:45:30;;;;;;;7.80;2.28;;;;;;;5.39;88.97;102594.75;5046196;28;20083;-92
2023/03/04 08:47:55;;;;;;;5.40;2.00;;;;;;;5.41;89.38;102589.69;5029731;28;20503;-92
2023/03/04 08:50:21;;;;;;;8.90;2.60;;;;;;;5.45;89.17;102601.16;5046833;28;20012;-92
2023/03/04 08:52:46;;;;;;;5.53;1.77;;;;;;;5.48;90.09;102591.03;5030423;28;20060;-91
2023/03/04 08:55:11;;;;;;;6.50;2.10;;;;;;;5.54;89.63;102600.13;5046356;28;20095;-92
2023/03/04 08:57:37;;;;;;;5.68;2.25;;;;;;;5.60;88.66;102591.91;5029738;28;20057;-92
2023/03/04 09:00:03;;;;;;;8.35;2.00;;;;;;;5.64;88.24;102583.59;5029718;28;20025;-90
2023/03/04 09:02:28;;;;;;;6.25;1.60;;;;;;;5.70;88.83;102589.19;5035440;28;20080;-95
2023/03/04 09:05:09;;;;;;;5.72;1.80;;;;;;;5.74;88.72;102580.88;5039590;28;20913;-96
2023/03/04 09:07:46;;;;;;;8.63;2.47;;;;;;;5.87;89.99;102584.34;5043466;28;20071;-96
2023/03/04 09:10:12;;;;;;;5.70;2.38;;;;;;;5.99;88.26;102582.63;5034888;28;20040;-95
2023/03/04 09:12:37;;;;;;;6.22;2.10;;;;;;;6.08;87.74;102582.38;5032965;28;20056;-96
2023/03/04 09:15:04;;;;;;;7.22;2.30;;;;;;;6.16;87.36;102580.34;5036312;28;20017;-95
2023/03/04 09:17:30;;;;;;;7.07;2.40;;;;;;;6.15;87.41;102569.09;5031784;28;20041;-92
2023/03/04 09:19:59;;;;;;;6.30;2.33;;;;;;;6.18;86.55;102571.88;5050113;28;20079;-96
2023/03/04 09:22:28;;;;;;;7.22;2.53;;;;;;;6.22;87.49;102570.41;5034607;28;20028;-96
2023/03/04 09:25:00;;;;;;;6.50;2.33;;;;;;;6.33;87.28;102569.47;5044352;28;20498;-96
2023/03/04 09:27:28;;;;;;;7.70;3.10;;;;;;;6.39;85.62;102564.72;5045987;28;20084;-96
2023/03/04 09:29:53;;;;;;;7.45;2.72;;;;;;;6.42;85.17;102570.09;5046872;28;20009;-96
2023/03/04 09:32:24;;;;;;;7.70;2.47;;;;;;;6.43;84.93;102568.38;5049404;28;20037;-96
2023/03/04 09:34:52;;;;;;;7.00;2.92;;;;;;;6.48;85.15;102563.56;5062407;28;20029;-94
2023/03/04 09:37:18;;;;;;;6.45;2.78;;;;;;;6.53;85.63;102551.78;5037059;28;20107;-95
2023/03/04 09:39:43;;;;;;;8.02;2.92;;;;;;;6.66;85.98;102559.59;5033846;28;20471;-96
2023/03/04 09:42:23;;;;;;;6.40;2.50;;;;;;;6.76;86.46;102561.09;5050846;28;20037;-94
2023/03/04 09:44:49;;;;;;;5.35;2.30;;;;;;;6.83;85.26;102549.47;5031045;28;20024;-94
2023/03/04 09:47:20;;;;;;;7.10;1.98;;;;;;;6.91;84.76;102550.91;5028298;28;20079;-94
2023/03/04 09:49:57;;;;;;;6.85;2.85;;;;;;;6.96;84.02;102555.56;5030438;28;20458;-94
2023/03/04 09:52:44;;;;;;;6.60;2.30;;;;;;;7.02;83.73;102554.19;5027783;28;20126;-93
2023/03/04 09:55:35;;;;;;;5.18;2.38;;;;;;;7.05;83.25;102557.84;5028071;28;20033;-94
2023/03/04 09:58:34;;;;;;;4.40;2.03;;;;;;;7.02;82.95;102562.84;5022317;28;20503;-96
2023/03/04 10:01:21;;;;;;;4.72;2.13;;;;;;;6.95;83.44;102558.97;5046476;23;20062;-96
2023/03/04 10:04:04;;;;;;;5.25;2.10;;;;;;;6.90;83.90;102556.84;5006790;28;20152;-96
2023/03/04 10:06:31;;;;;;;5.95;1.88;;;;;;;6.88;83.58;102568.78;5030026;28;20483;-95
2023/03/04 10:09:30;;;;;;;6.45;1.60;;;;;;;6.83;84.02;102567.63;5013918;28;20026;-96
2023/03/04 10:12:06;;;;;;;4.18;1.40;;;;;;;6.76;83.46;102559.44;5021551;28;20035;-96
2023/03/04 10:14:50;;;;;;;5.28;1.48;;;;;;;6.74;83.20;102561.00;5024731;28;20029;-95
2023/03/04 10:17:36;;;;;;;4.70;1.40;;;;;;;6.70;83.59;102561.59;5008665;28;20104;-95
2023/03/04 10:20:25;;;;;;;4.68;1.50;;;;;;;6.73;84.33;102558.31;5016174;28;20088;-94
2023/03/04 10:23:13;;;;;;;4.68;1.40;;;;;;;6.89;86.21;102552.47;4985628;28;20025;-96
2023/03/04 10:25:44;;;;;;;7.90;1.97;;;;;;;7.07;84.78;102552.78;4996205;28;20040;-95
2023/03/04 10:28:18;;;;;;;4.65;1.50;;;;;;;7.19;82.13;102548.41;4995848;28;20029;-96
2023/03/04 10:31:05;;;;;;;5.78;1.50;;;;;;;7.30;82.42;102551.69;4998211;28;20483;-96
2023/03/04 10:33:37;;;;;;;6.05;1.92;;;;;;;7.37;82.33;102548.69;5011972;28;20038;-96
2023/03/04 10:36:19;;;;;;;3.50;1.40;;;;;;;7.40;80.92;102553.16;4999491;28;20049;-94
2023/03/04 10:38:44;;;;;;;4.97;1.70;;;;;;;7.36;80.81;102543.38;5030705;28;20484;-95
2023/03/04 10:41:20;;;;;;;4.85;1.70;;;;;;;7.32;80.98;102539.72;4997108;28;20029;-96
2023/03/04 10:44:18;;;;;;;4.95;1.70;;;;;;;7.26;81.47;102536.75;5000015;28;20487;-95
2023/03/04 10:46:48;;;;;;;4.47;1.58;;;;;;;7.20;80.77;102533.72;5015650;28;20084;-96
2023/03/04 10:49:17;;;;;;;4.88;1.70;;;;;;;7.17;81.10;102533.53;5033434;28;20033;-95
2023/03/04 10:51:44;;;;;;;5.03;1.70;;;;;;;7.12;81.33;102539.31;4996974;28;20034;-95
2023/03/04 10:54:29;;;;;;;5.22;1.52;;;;;;;7.09;81.81;102543.41;4995317;28;20049;-95
2023/03/04 10:59:41;;;;;;;5.40;1.50;;;;;;;7.07;82.23;102539.84;3327049;26;20057;-92
2023/03/04 11:02:30;;;;;;;4.65;1.50;;;;;;;7.05;82.42;102537.13;4981015;28;20049;-93
2023/03/04 11:05:28;;;;;;;5.53;1.53;;;;;;;7.01;82.35;102536.81;4979746;28;20431;-94
2023/03/04 11:08:00;;;;;;;4.47;1.30;;;;;;;6.94;82.76;102532.94;4979803;28;20045;-94
2023/03/04 11:10:56;;;;;;;4.13;1.50;;;;;;;6.88;83.87;102529.94;4996673;28;20041;-94
2023/03/04 11:13:52;;;;;;;3.95;1.17;;;;;;;6.83;83.41;102529.63;4979568;28;20031;-94
2023/03/04 11:16:34;;;;;;;3.75;1.33;;;;;;;6.81;83.71;102530.31;4962123;28;20625;-93
2023/03/04 11:19:23;;;;;;;2.85;1.33;;;;;;;6.76;83.76;102518.00;4962676;28;20115;-93
2023/03/04 11:21:58;;;;;;;4.00;1.70;;;;;;;6.77;84.00;102518.88;4962068;28;20104;-92
2023/03/04 11:24:45;;;;;;;3.58;1.60;;;;;;;6.77;83.46;102519.75;4961240;28;20035;-93
2023/03/04 11:27:55;;;;;;;4.00;1.90;;;;;;;6.77;83.86;102522.34;4961537;28;20034;-94
2023/03/04 11:31:04;;;;;;;4.35;2.05;;;;;;;6.68;85.27;102523.47;4894291;29;20043;-93
2023/03/04 11:33:46;;;;;;;4.35;2.10;;;;;;;6.58;86.52;102514.16;4960910;28;21220;-93
2023/03/04 11:36:28;;;;;;;4.53;2.15;;;;;;;6.54;87.44;102517.34;4968879;28;20026;-93
2023/03/04 11:39:14;;;;;;;3.92;2.20;;;;;;;6.52;87.29;102516.34;4959873;28;20040;-92
2023/03/04 11:42:20;;;;;;;3.95;2.20;;;;;;;6.62;87.83;102511.00;4959600;28;20490;-93
2023/03/04 11:45:00;;;;;;;4.07;2.40;;;;;;;6.77;89.61;102505.91;4960654;28;20042;-91
2023/03/04 11:48:01;;;;;;;5.50;2.60;;;;;;;6.89;87.67;102501.53;4963948;28;20022;-92
2023/03/04 11:51:22;;;;;;;5.47;2.20;;;;;;;7.01;88.03;102501.47;4930637;28;20570;-93
2023/03/04 11:54:35;;;;;;;4.90;2.10;;;;;;;7.05;87.76;102497.34;4916659;28;20041;-93
2023/03/04 11:57:45;;;;;;;4.53;2.40;;;;;;;7.02;87.61;102491.97;4940529;28;20035;-94
2023/03/04 12:00:54;;;;;;;4.00;2.20;;;;;;;6.99;88.43;102484.88;4944377;28;20043;-93
2023/03/04 12:03:42;;;;;;;4.50;2.00;;;;;;;6.95;87.88;102476.03;4940889;28;20030;-94
2023/03/04 12:06:36;;;;;;;3.75;2.25;;;;;;;6.97;89.10;102470.94;4941011;28;20035;-94
2023/03/04 12:09:20;;;;;;;3.72;2.28;;;;;;;7.01;89.53;102460.00;4941287;28;20117;-93